createdAt,value
2023-01-26T00:01:22.687Z,-2.00
2023-01-26T00:03:50.813Z,-2.00
2023-01-26T00:06:19.440Z,-2.00
2023-01-26T00:08:51.958Z,-1.90
2023-01-26T00:11:24.347Z,-1.90
2023-01-26T00:13:51.663Z,-2.00
2023-01-26T00:16:18.941Z,-2.00
2023-01-26T00:18:45.784Z,-2.00
2023-01-26T00:21:14.973Z,-2.00
2023-01-26T00:23:42.262Z,-2.00
2023-01-26T00:26:10.902Z,-1.90
2023-01-26T00:28:39.646Z,-1.90
2023-01-26T00:31:11.025Z,-1.90
2023-01-26T00:33:37.820Z,-1.90
2023-01-26T00:36:05.307Z,-1.90
2023-01-26T00:38:32.316Z,-1.90
2023-01-26T00:40:59.172Z,-1.80
2023-01-26T00:43:26.219Z,-1.80
2023-01-26T00:45:53.016Z,-1.80
2023-01-26T00:48:21.140Z,-1.80
2023-01-26T00:50:51.039Z,-1.80
2023-01-26T00:53:18.100Z,-1.80
2023-01-26T00:55:45.822Z,-1.80
2023-01-26T00:58:12.695Z,-1.80
2023-01-26T01:00:40.045Z,-1.80
2023-01-26T01:03:07.440Z,-1.80
2023-01-26T01:05:34.896Z,-1.80
2023-01-26T01:08:02.330Z,-1.80
2023-01-26T01:10:29.575Z,-1.80
2023-01-26T01:12:56.820Z,-1.80
2023-01-26T01:15:24.649Z,-1.80
2023-01-26T01:17:51.848Z,-1.80
2023-01-26T01:20:18.997Z,-1.80
2023-01-26T01:22:46.994Z,-1.80
2023-01-26T01:25:14.248Z,-1.80
2023-01-26T01:27:41.103Z,-1.70
2023-01-26T01:30:08.756Z,-1.70
2023-01-26T01:32:36.430Z,-1.70
2023-01-26T01:35:03.929Z,-1.60
2023-01-26T01:37:31.160Z,-1.60
2023-01-26T01:39:58.029Z,-1.70
2023-01-26T01:42:25.655Z,-1.70
2023-01-26T01:45:26.677Z,-1.60
2023-01-26T01:47:56.887Z,-1.60
2023-01-26T01:50:24.980Z,-1.60
2023-01-26T01:52:54.433Z,-1.60
2023-01-26T01:55:21.258Z,-1.70
2023-01-26T01:57:55.242Z,-1.70
2023-01-26T02:00:23.922Z,-1.70
2023-01-26T02:03:11.111Z,-1.70
2023-01-26T02:05:42.665Z,-1.60
2023-01-26T02:08:11.309Z,-1.50
2023-01-26T02:10:38.228Z,-1.60
2023-01-26T02:13:06.385Z,-1.50
2023-01-26T02:15:33.368Z,-1.60
2023-01-26T02:18:04.986Z,-1.50
2023-01-26T02:20:34.877Z,-1.40
2023-01-26T02:23:39.236Z,-1.40
2023-01-26T02:26:15.186Z,-1.40
2023-01-26T02:28:43.913Z,-1.50
2023-01-26T02:31:11.761Z,-1.50
2023-01-26T02:33:39.409Z,-1.50
2023-01-26T02:36:07.672Z,-1.50
2023-01-26T02:38:43.557Z,-1.50
2023-01-26T02:41:36.435Z,-1.50
2023-01-26T02:44:06.100Z,-1.40
2023-01-26T02:46:33.024Z,-1.50
2023-01-26T02:49:18.663Z,-1.50
2023-01-26T02:51:46.081Z,-1.50
2023-01-26T02:54:33.078Z,-1.50
2023-01-26T02:57:01.537Z,-1.50
2023-01-26T02:59:28.413Z,-1.60
2023-01-26T03:01:56.991Z,-1.50
2023-01-26T03:04:24.203Z,-1.50
2023-01-26T03:06:52.561Z,-1.50
2023-01-26T03:09:19.356Z,-1.50
2023-01-26T03:11:47.414Z,-1.50
2023-01-26T03:14:16.825Z,-1.50
2023-01-26T03:16:43.991Z,-1.50
2023-01-26T03:19:33.931Z,-1.40
2023-01-26T03:22:33.035Z,-1.40
2023-01-26T03:25:18.333Z,-1.30
2023-01-26T03:27:47.467Z,-1.30
2023-01-26T03:30:17.971Z,-1.30
2023-01-26T03:32:46.636Z,-1.30
2023-01-26T03:35:16.170Z,-1.30
2023-01-26T03:37:43.856Z,-1.30
2023-01-26T03:40:35.624Z,-1.40
2023-01-26T03:43:26.766Z,-1.40
2023-01-26T03:46:12.667Z,-1.30
2023-01-26T03:48:58.156Z,-1.30
2023-01-26T03:51:43.966Z,-1.40
2023-01-26T03:54:29.393Z,-1.30
2023-01-26T03:56:56.231Z,-1.30
2023-01-26T03:59:37.929Z,-1.30
2023-01-26T04:02:28.075Z,-1.40
2023-01-26T04:05:14.016Z,-1.40
2023-01-26T04:08:03.547Z,-1.40
2023-01-26T04:10:30.586Z,-1.30
2023-01-26T04:13:18.049Z,-1.40
2023-01-26T04:16:08.953Z,-1.30
2023-01-26T04:18:55.011Z,-1.30
2023-01-26T04:21:33.417Z,-1.20
2023-01-26T04:24:16.620Z,-1.20
2023-01-26T04:26:44.594Z,-1.20
2023-01-26T04:29:16.652Z,-1.30
2023-01-26T04:31:44.492Z,-1.30
2023-01-26T04:34:15.348Z,-1.30
2023-01-26T04:36:43.630Z,-1.30
2023-01-26T04:39:10.546Z,-1.30
2023-01-26T04:41:42.351Z,-1.20
2023-01-26T04:44:11.938Z,-1.20
2023-01-26T04:46:38.896Z,-1.20
2023-01-26T04:49:06.527Z,-1.20
2023-01-26T04:51:34.816Z,-1.20
2023-01-26T04:54:01.705Z,-1.30
2023-01-26T04:56:34.593Z,-1.30
2023-01-26T04:59:05.327Z,-1.30
2023-01-26T05:01:33.642Z,-1.30
2023-01-26T05:04:03.509Z,-1.20
2023-01-26T05:06:32.494Z,-1.30
2023-01-26T05:08:59.677Z,-1.30
2023-01-26T05:11:27.496Z,-1.20
2023-01-26T05:13:57.223Z,-1.30
2023-01-26T05:16:43.832Z,-1.30
2023-01-26T05:19:46.027Z,-1.30
2023-01-26T05:22:38.911Z,-1.30
2023-01-26T05:25:24.230Z,-1.30
2023-01-26T05:27:57.503Z,-1.30
2023-01-26T05:30:24.796Z,-1.30
2023-01-26T05:32:52.131Z,-1.40
2023-01-26T05:35:19.124Z,-1.30
2023-01-26T05:37:46.057Z,-1.30
2023-01-26T05:40:14.279Z,-1.40
2023-01-26T05:42:43.915Z,-1.40
2023-01-26T05:45:24.114Z,-1.30
2023-01-26T05:47:55.368Z,-1.20
2023-01-26T05:50:22.786Z,-1.30
2023-01-26T05:53:09.650Z,-1.30
2023-01-26T05:55:37.715Z,-1.30
2023-01-26T05:58:05.080Z,-1.30
2023-01-26T06:00:32.121Z,-1.30
2023-01-26T06:03:07.187Z,-1.30
2023-01-26T06:05:34.016Z,-1.30
2023-01-26T06:08:06.348Z,-1.20
2023-01-26T06:10:47.127Z,-1.20
2023-01-26T06:13:24.845Z,-1.20
2023-01-26T06:16:01.800Z,-1.20
2023-01-26T06:18:30.245Z,-1.20
2023-01-26T06:21:03.513Z,-1.20
2023-01-26T06:23:30.850Z,-1.20
2023-01-26T06:26:01.940Z,-1.20
2023-01-26T06:28:30.922Z,-1.20
2023-01-26T06:31:05.325Z,-1.20
2023-01-26T06:33:37.019Z,-1.20
2023-01-26T06:36:07.119Z,-1.10
2023-01-26T06:38:34.279Z,-1.20
2023-01-26T06:41:04.023Z,-1.20
2023-01-26T06:43:35.798Z,-1.20
2023-01-26T06:46:04.884Z,-1.10
2023-01-26T06:48:34.471Z,-1.10
2023-01-26T06:51:18.351Z,-1.10
2023-01-26T06:53:51.614Z,-1.10
2023-01-26T06:56:29.059Z,-1.20
2023-01-26T06:59:16.493Z,-1.10
2023-01-26T07:02:20.547Z,-1.10
2023-01-26T07:04:48.468Z,-1.10
2023-01-26T07:07:15.657Z,-1.10
2023-01-26T07:09:42.648Z,-1.10
2023-01-26T07:12:09.623Z,-1.10
2023-01-26T07:14:36.537Z,-1.00
2023-01-26T07:17:03.784Z,-1.00
2023-01-26T07:19:33.189Z,-1.00
2023-01-26T07:22:00.884Z,-1.00
2023-01-26T07:24:28.221Z,-0.90
2023-01-26T07:26:55.588Z,-0.90
2023-01-26T07:29:22.760Z,-1.00
2023-01-26T07:31:49.868Z,-0.90
2023-01-26T07:34:16.971Z,-0.90
2023-01-26T07:36:43.849Z,-1.00
2023-01-26T07:39:10.696Z,-1.00
2023-01-26T07:41:37.525Z,-0.90
2023-01-26T07:44:24.411Z,-0.90
2023-01-26T07:46:51.234Z,-0.90
2023-01-26T07:49:18.030Z,-0.80
2023-01-26T07:51:45.475Z,-0.80
2023-01-26T07:54:13.094Z,-0.70
2023-01-26T07:56:39.948Z,-0.70
2023-01-26T07:59:06.910Z,-0.60
2023-01-26T08:01:33.729Z,-0.60
2023-01-26T08:04:00.643Z,-0.60
2023-01-26T08:06:27.643Z,-0.60
2023-01-26T08:08:54.556Z,-0.50
2023-01-26T08:11:23.968Z,-0.50
2023-01-26T08:13:50.843Z,-0.50
2023-01-26T08:16:18.219Z,-0.40
2023-01-26T08:18:46.373Z,-0.40
2023-01-26T08:21:14.984Z,-0.50
2023-01-26T08:23:41.921Z,-0.50
2023-01-26T08:26:11.499Z,-0.60
2023-01-26T08:28:38.356Z,-0.50
2023-01-26T08:31:12.123Z,-0.50
2023-01-26T08:33:40.924Z,-0.50
2023-01-26T08:36:10.843Z,-0.50
2023-01-26T08:38:37.781Z,-0.50
2023-01-26T08:41:05.251Z,-0.40
2023-01-26T08:43:32.200Z,-0.40
2023-01-26T08:45:59.350Z,-0.40
2023-01-26T08:48:26.391Z,-0.30
2023-01-26T08:50:58.581Z,-0.30
2023-01-26T08:53:26.167Z,-0.20
2023-01-26T08:55:52.964Z,-0.20
2023-01-26T08:58:20.564Z,-0.20
2023-01-26T09:00:47.874Z,-0.20
2023-01-26T09:03:14.914Z,-0.20
2023-01-26T09:05:41.782Z,-0.10
2023-01-26T09:08:09.756Z,-0.10
2023-01-26T09:10:39.538Z,-0.10
2023-01-26T09:13:06.699Z,0.00
2023-01-26T09:15:33.607Z,0.10
2023-01-26T09:18:01.116Z,-0.10
2023-01-26T09:20:28.993Z,-0.10
2023-01-26T09:22:55.879Z,-0.10
2023-01-26T09:25:22.748Z,0.00
2023-01-26T09:27:49.533Z,-0.10
2023-01-26T09:30:16.973Z,-0.10
2023-01-26T09:32:44.059Z,0.00
2023-01-26T09:35:14.290Z,0.00
2023-01-26T09:37:43.545Z,0.00
2023-01-26T09:40:19.052Z,0.00
2023-01-26T09:42:45.853Z,0.10
2023-01-26T09:45:13.009Z,0.10
2023-01-26T09:48:19.044Z,0.20
2023-01-26T09:50:57.392Z,0.10
2023-01-26T09:53:47.435Z,0.20
2023-01-26T09:56:20.231Z,0.20
2023-01-26T09:59:04.783Z,0.20
2023-01-26T10:01:53.216Z,0.20
2023-01-26T10:04:33.827Z,0.20
2023-01-26T10:07:04.313Z,0.20
2023-01-26T10:09:50.615Z,0.20
2023-01-26T10:12:21.035Z,0.20
2023-01-26T10:15:23.207Z,0.20
2023-01-26T10:17:51.044Z,0.10
2023-01-26T10:20:32.817Z,0.20
2023-01-26T10:23:07.762Z,0.10
2023-01-26T10:25:37.597Z,0.10
2023-01-26T10:28:19.090Z,0.10
2023-01-26T10:30:48.422Z,0.10
2023-01-26T10:33:20.391Z,0.10
2023-01-26T10:35:47.810Z,0.00
2023-01-26T10:38:47.446Z,0.10
2023-01-26T10:41:14.196Z,0.30
2023-01-26T10:43:42.824Z,0.20
2023-01-26T10:46:29.413Z,0.30
2023-01-26T10:49:17.890Z,0.30
2023-01-26T10:52:04.851Z,0.40
2023-01-26T10:54:34.131Z,0.50
2023-01-26T10:57:07.193Z,0.50
2023-01-26T10:59:35.274Z,0.70
2023-01-26T11:02:29.646Z,0.70
2023-01-26T11:05:09.026Z,0.80
2023-01-26T11:07:40.682Z,0.80
2023-01-26T11:10:36.432Z,0.80
2023-01-26T11:13:30.169Z,0.70
2023-01-26T11:16:05.021Z,0.90
2023-01-26T11:18:35.048Z,0.90
2023-01-26T11:21:29.223Z,0.90
2023-01-26T11:23:59.157Z,1.00
2023-01-26T11:26:49.569Z,0.90
2023-01-26T11:29:49.204Z,0.90
2023-01-26T11:32:34.090Z,0.80
2023-01-26T11:35:30.273Z,0.70
2023-01-26T11:38:06.040Z,0.70
2023-01-26T11:40:52.926Z,0.70
2023-01-26T11:43:37.793Z,0.60
2023-01-26T11:46:04.607Z,0.60
2023-01-26T11:49:00.723Z,0.60
2023-01-26T11:51:39.484Z,0.60
2023-01-26T11:54:36.117Z,0.60
2023-01-26T11:57:11.966Z,0.60
2023-01-26T11:59:48.518Z,0.60
2023-01-26T12:02:35.636Z,0.50
2023-01-26T12:05:23.529Z,0.50
2023-01-26T12:08:11.982Z,0.60
2023-01-26T12:11:23.313Z,0.60
2023-01-26T12:14:06.146Z,0.60
2023-01-26T12:16:58.075Z,0.60
2023-01-26T12:20:14.440Z,0.50
2023-01-26T12:23:10.985Z,0.70
2023-01-26T12:25:41.799Z,0.70
2023-01-26T12:28:47.297Z,0.70
2023-01-26T12:31:33.303Z,0.70
2023-01-26T12:34:00.283Z,0.70
2023-01-26T12:36:49.033Z,0.70
2023-01-26T12:39:46.121Z,0.70
2023-01-26T12:42:45.180Z,0.90
2023-01-26T12:45:20.549Z,0.90
2023-01-26T12:48:07.507Z,1.00
2023-01-26T12:50:49.993Z,1.00
2023-01-26T12:53:37.866Z,1.00
2023-01-26T12:56:23.233Z,1.00
2023-01-26T12:58:52.809Z,1.00
2023-01-26T13:01:22.905Z,1.00
2023-01-26T13:03:56.969Z,0.90
2023-01-26T13:06:28.575Z,0.90
2023-01-26T13:09:17.210Z,0.80
2023-01-26T13:11:53.929Z,0.90
2023-01-26T13:14:30.731Z,0.90
2023-01-26T13:17:19.032Z,1.00
2023-01-26T13:19:45.911Z,1.00
2023-01-26T13:22:41.279Z,1.00
2023-01-26T13:25:20.365Z,1.00
2023-01-26T13:28:12.958Z,1.00
2023-01-26T13:30:44.960Z,1.00
2023-01-26T13:33:23.583Z,1.10
2023-01-26T13:35:52.828Z,1.10
2023-01-26T13:38:19.631Z,1.10
2023-01-26T13:40:50.431Z,1.20
2023-01-26T13:43:27.934Z,1.10
2023-01-26T13:46:18.717Z,1.20
2023-01-26T13:48:53.472Z,1.20
2023-01-26T13:51:31.935Z,1.20
2023-01-26T13:54:13.065Z,1.20
2023-01-26T13:56:59.728Z,1.20
2023-01-26T13:59:26.855Z,1.10
2023-01-26T14:01:55.736Z,1.10
2023-01-26T14:04:28.754Z,1.20
2023-01-26T14:06:58.402Z,1.10
2023-01-26T14:09:28.268Z,1.10
2023-01-26T14:12:04.930Z,1.10
2023-01-26T14:14:35.143Z,1.10
2023-01-26T14:17:07.610Z,1.10
2023-01-26T14:19:41.060Z,1.10
2023-01-26T14:22:13.149Z,1.10
2023-01-26T14:24:41.250Z,1.10
2023-01-26T14:27:26.471Z,1.10
2023-01-26T14:29:53.365Z,1.10
2023-01-26T14:32:25.469Z,1.20
2023-01-26T14:34:55.302Z,1.10
2023-01-26T14:37:24.792Z,1.10
2023-01-26T14:40:23.881Z,1.10
2023-01-26T14:42:53.652Z,1.10
2023-01-26T14:45:32.745Z,1.10
2023-01-26T14:48:09.637Z,1.10
2023-01-26T14:50:38.160Z,1.10
2023-01-26T14:53:06.731Z,1.20
2023-01-26T14:55:36.347Z,1.20
2023-01-26T14:58:13.087Z,1.20
2023-01-26T15:00:40.100Z,1.20
2023-01-26T15:03:31.114Z,1.20
2023-01-26T15:06:21.367Z,1.20
2023-01-26T15:09:06.359Z,1.20
2023-01-26T15:11:58.043Z,1.20
2023-01-26T15:14:37.464Z,1.20
2023-01-26T15:17:05.689Z,1.20
2023-01-26T15:19:39.784Z,1.20
2023-01-26T15:22:19.297Z,1.20
2023-01-26T15:24:47.921Z,1.20
2023-01-26T15:27:14.824Z,1.20
2023-01-26T15:29:41.711Z,1.20
2023-01-26T15:32:28.584Z,1.20
2023-01-26T15:35:32.399Z,1.20
2023-01-26T15:38:10.641Z,1.20
2023-01-26T15:40:38.103Z,1.20
2023-01-26T15:43:15.854Z,1.20
2023-01-26T15:45:48.561Z,1.20
2023-01-26T15:48:15.389Z,1.20
2023-01-26T15:50:42.232Z,1.20
2023-01-26T15:53:16.957Z,1.20
2023-01-26T15:55:44.841Z,1.20
2023-01-26T15:58:11.694Z,1.20
2023-01-26T16:00:39.380Z,1.20
2023-01-26T16:03:13.910Z,1.30
2023-01-26T16:05:40.799Z,1.20
2023-01-26T16:08:08.750Z,1.20
2023-01-26T16:10:37.138Z,1.20
2023-01-26T16:13:11.856Z,1.20
2023-01-26T16:15:53.659Z,1.20
2023-01-26T16:18:20.948Z,1.10
2023-01-26T16:20:49.455Z,1.10
2023-01-26T16:23:20.633Z,1.20
2023-01-26T16:25:48.653Z,1.20
2023-01-26T16:28:16.898Z,1.20
2023-01-26T16:30:46.166Z,1.20
2023-01-26T16:33:15.365Z,1.20
2023-01-26T16:35:42.689Z,1.20
2023-01-26T16:38:13.090Z,1.20
2023-01-26T16:40:45.073Z,1.20
2023-01-26T16:43:23.793Z,1.20
2023-01-26T16:45:51.485Z,1.20
2023-01-26T16:48:18.455Z,1.30
2023-01-26T16:50:45.951Z,1.20
2023-01-26T16:53:29.431Z,1.20
2023-01-26T16:55:56.832Z,1.30
2023-01-26T16:58:26.620Z,1.20
2023-01-26T17:00:54.710Z,1.20
2023-01-26T17:03:21.573Z,1.20
2023-01-26T17:05:50.567Z,1.20
2023-01-26T17:08:17.624Z,1.20
2023-01-26T17:10:59.830Z,1.20
2023-01-26T17:13:28.401Z,1.20
2023-01-26T17:15:57.161Z,1.10
2023-01-26T17:18:24.537Z,1.10
2023-01-26T17:20:51.552Z,1.10
2023-01-26T17:23:18.407Z,1.20
2023-01-26T17:25:45.301Z,1.20
2023-01-26T17:28:12.151Z,1.20
2023-01-26T17:30:39.015Z,1.30
2023-01-26T17:33:05.872Z,1.20
2023-01-26T17:35:32.785Z,1.20
2023-01-26T17:37:59.646Z,1.20
2023-01-26T17:40:26.509Z,1.20
2023-01-26T17:42:53.324Z,1.20
2023-01-26T17:45:20.118Z,1.20
2023-01-26T17:47:46.953Z,1.20
2023-01-26T17:50:13.905Z,1.20
2023-01-26T17:52:40.775Z,1.20
2023-01-26T17:55:07.845Z,1.20
2023-01-26T17:57:34.770Z,1.20
2023-01-26T18:00:01.750Z,1.30
2023-01-26T18:02:28.789Z,1.20
2023-01-26T18:04:55.786Z,1.20
2023-01-26T18:07:23.980Z,1.30
2023-01-26T18:09:50.998Z,1.30
2023-01-26T18:12:17.874Z,1.30
2023-01-26T18:14:44.905Z,1.30
2023-01-26T18:17:11.769Z,1.40
2023-01-26T18:19:38.572Z,1.40
2023-01-26T18:22:05.421Z,1.40
2023-01-26T18:24:32.372Z,1.40
2023-01-26T18:26:59.238Z,1.40
2023-01-26T18:29:26.066Z,1.40
2023-01-26T18:31:52.969Z,1.40
2023-01-26T18:34:19.846Z,1.40
2023-01-26T18:36:46.653Z,1.40
2023-01-26T18:39:14.479Z,1.50
2023-01-26T18:41:43.279Z,1.50
2023-01-26T18:44:10.359Z,1.40
2023-01-26T18:46:37.307Z,1.40
2023-01-26T18:49:04.632Z,1.40
2023-01-26T18:51:34.640Z,1.40
2023-01-26T18:54:03.920Z,1.50
2023-01-26T18:56:31.395Z,1.40
2023-01-26T18:58:59.300Z,1.40
2023-01-26T19:01:26.799Z,1.30
2023-01-26T19:03:58.355Z,1.40
2023-01-26T19:06:27.102Z,1.40
2023-01-26T19:09:01.093Z,1.30
2023-01-26T19:11:30.862Z,1.30
2023-01-26T19:13:58.696Z,1.40
2023-01-26T19:16:26.857Z,1.40
2023-01-26T19:18:55.443Z,1.40
2023-01-26T19:21:27.512Z,1.40
2023-01-26T19:23:56.689Z,1.40
2023-01-26T19:26:27.882Z,1.40
2023-01-26T19:28:54.775Z,1.50
2023-01-26T19:31:22.533Z,1.50
2023-01-26T19:33:54.723Z,1.50
2023-01-26T19:36:21.906Z,1.40
2023-01-26T19:38:49.304Z,1.50
2023-01-26T19:41:16.714Z,1.40
2023-01-26T19:43:44.600Z,1.50
2023-01-26T19:46:15.358Z,1.50
2023-01-26T19:48:43.059Z,1.40
2023-01-26T19:51:18.990Z,1.50
2023-01-26T19:53:48.495Z,1.50
2023-01-26T19:56:21.592Z,1.50
2023-01-26T19:58:53.361Z,1.40
2023-01-26T20:01:21.667Z,1.50
2023-01-26T20:03:58.673Z,1.50
2023-01-26T20:06:28.416Z,1.50
2023-01-26T20:08:55.757Z,1.50
2023-01-26T20:11:24.897Z,1.60
2023-01-26T20:14:10.982Z,1.70
2023-01-26T20:16:38.159Z,1.70
2023-01-26T20:19:05.322Z,1.80
2023-01-26T20:21:32.786Z,1.80
2023-01-26T20:24:05.152Z,1.80
2023-01-26T20:26:33.851Z,1.80
2023-01-26T20:29:00.880Z,1.80
2023-01-26T20:31:28.190Z,1.70
2023-01-26T20:33:55.819Z,1.70
2023-01-26T20:36:25.617Z,1.70
2023-01-26T20:38:52.789Z,1.60
2023-01-26T20:41:24.825Z,1.60
2023-01-26T20:44:00.001Z,1.50
2023-01-26T20:46:30.090Z,1.50
2023-01-26T20:48:57.432Z,1.50
2023-01-26T20:51:29.458Z,1.50
2023-01-26T20:53:57.690Z,1.60
2023-01-26T20:56:24.820Z,1.60
2023-01-26T20:58:54.000Z,1.70
2023-01-26T21:01:22.055Z,1.90
2023-01-26T21:03:49.367Z,2.00
2023-01-26T21:06:20.991Z,2.10
2023-01-26T21:08:53.418Z,2.20
2023-01-26T21:11:22.980Z,2.30
2023-01-26T21:13:51.964Z,2.40
2023-01-26T21:16:19.147Z,2.40
2023-01-26T21:18:46.229Z,2.40
2023-01-26T21:21:15.102Z,2.40
2023-01-26T21:23:41.971Z,2.40
2023-01-26T21:26:13.004Z,2.40
2023-01-26T21:28:40.080Z,2.30
2023-01-26T21:31:13.895Z,2.20
2023-01-26T21:33:47.579Z,2.20
2023-01-26T21:36:17.026Z,2.10
2023-01-26T21:38:45.831Z,2.00
2023-01-26T21:41:34.030Z,2.00
2023-01-26T21:44:07.113Z,2.00
2023-01-26T21:46:34.377Z,1.90
2023-01-26T21:49:02.522Z,1.90
2023-01-26T21:51:48.549Z,1.90
2023-01-26T21:54:16.086Z,1.80
2023-01-26T21:56:43.006Z,1.80
2023-01-26T21:59:14.655Z,1.80
2023-01-26T22:01:53.991Z,1.80
2023-01-26T22:04:26.206Z,1.80
2023-01-26T22:06:53.136Z,1.80
2023-01-26T22:09:21.279Z,1.90
2023-01-26T22:11:50.480Z,1.90
2023-01-26T22:14:22.987Z,1.80
2023-01-26T22:16:49.839Z,1.80
2023-01-26T22:19:16.899Z,1.80
2023-01-26T22:21:44.869Z,1.90
2023-01-26T22:24:14.420Z,1.80
2023-01-26T22:26:42.267Z,1.80
2023-01-26T22:29:11.950Z,1.80
2023-01-26T22:31:38.898Z,1.90
2023-01-26T22:34:05.916Z,1.80
2023-01-26T22:36:33.488Z,1.80
2023-01-26T22:39:01.032Z,1.80
2023-01-26T22:41:30.110Z,1.80
2023-01-26T22:43:59.394Z,1.80
2023-01-26T22:46:29.157Z,1.90
2023-01-26T22:48:57.630Z,1.90
2023-01-26T22:51:30.075Z,1.90
2023-01-26T22:53:58.482Z,1.90
2023-01-26T22:56:26.437Z,1.90
2023-01-26T22:58:58.592Z,1.90
2023-01-26T23:01:31.312Z,1.90
2023-01-26T23:03:59.789Z,1.90
2023-01-26T23:06:27.194Z,1.90
2023-01-26T23:08:54.491Z,1.90
2023-01-26T23:11:24.278Z,1.90
2023-01-26T23:13:52.679Z,1.90
2023-01-26T23:16:22.773Z,2.00
2023-01-26T23:18:49.932Z,2.00
2023-01-26T23:21:16.988Z,2.00
2023-01-26T23:23:44.632Z,2.10
2023-01-26T23:26:11.991Z,2.10
2023-01-26T23:28:41.949Z,2.10
2023-01-26T23:31:09.857Z,2.10
2023-01-26T23:33:38.033Z,2.10
2023-01-26T23:36:05.819Z,2.10
2023-01-26T23:38:33.139Z,2.20
2023-01-26T23:41:05.411Z,2.20
2023-01-26T23:43:32.799Z,2.20
2023-01-26T23:46:00.075Z,2.20
2023-01-26T23:48:27.258Z,2.20
2023-01-26T23:51:05.316Z,2.20
2023-01-26T23:53:32.826Z,2.20
2023-01-26T23:56:03.156Z,2.30
2023-01-26T23:58:29.969Z,2.20
